ノヴォシビルスク の空港の天気 - METARとTAF

トルマチェヴォ空港(ノヴォシビルスク) ( UNNT / OVB ) - ロシア ノヴォシビルスク
飛行場実況気象(Metar)
観測時間04/30 20:30 +06 (04/30 14:30 UTC)
風向・風速北西 3m/s
視程10km以上
天気現象弱いしゅう雨
全天の8割程度の雲 雲底高度 880m
気温5℃
湿度87%
気圧1020hPa
METARUNNT 301430Z 32003MPS 9999 -SHRA BKN029CB 05/03 Q1020 R25/290160 R16/290160 NOSIG RMK QFE755/1006
過去の天気等 Google飛行場航空写真 Wunderground天気予報

過去48時間のMETAR

飛行場予報(TAF)
発表時間: 4/30 20:00 +06 (4/30 14:00 UTC)
予報対象時間: 30日21時 +06 ~ 1日21時 +06
風向・風速北北西 6m/s 瞬間風速 12m/s
視程10km以上
全天の8割程度の積乱雲 雲底高度 460m
30日21時 +06 ~ 1日3時 +06 に一時的に
視程3,000m
天気現象弱いしゅう雨
1日3時 +06 ~ 1日5時 +06 に徐々に
風向・風速西北西 3m/s 瞬間風速 8m/s
1日10時 +06 ~ 1日12時 +06 に徐々に
風向・風速西 9m/s 瞬間風速 16m/s
1日10時 +06 ~ 1日21時 +06 に一時的に
視程3,000m
天気現象弱いしゅう雨
全天の8割程度の積乱雲 雲底高度 300m
TAF UNNT 301400Z 3015/0115 33006G12MPS 9999 BKN015CB
TEMPO 3015/3021 3000 -SHRA
BECMG 3021/3023 29003G08MPS
BECMG 0104/0106 26009G16MPS
TEMPO 0104/0115 3000 -SHRA BKN010CB